sensor_id;sensor_type;location;lat;lon;timestamp;P1;durP1;ratioP1;P2;durP2;ratioP2
1428;SDS011;708;51.442;7.016;2024-02-23T00:01:53;6.40;;;6.20;;
1428;SDS011;708;51.442;7.016;2024-02-23T00:04:20;6.47;;;6.25;;
1428;SDS011;708;51.442;7.016;2024-02-23T00:06:48;6.15;;;5.95;;
1428;SDS011;708;51.442;7.016;2024-02-23T00:09:15;6.18;;;5.97;;
1428;SDS011;708;51.442;7.016;2024-02-23T00:11:42;6.25;;;6.05;;
1428;SDS011;708;51.442;7.016;2024-02-23T00:14:10;6.13;;;5.93;;
1428;SDS011;708;51.442;7.016;2024-02-23T00:16:37;6.82;;;6.63;;
1428;SDS011;708;51.442;7.016;2024-02-23T00:19:07;6.63;;;6.43;;
1428;SDS011;708;51.442;7.016;2024-02-23T00:21:36;7.40;;;7.10;;
1428;SDS011;708;51.442;7.016;2024-02-23T00:24:04;6.20;;;6.00;;
1428;SDS011;708;51.442;7.016;2024-02-23T00:26:32;6.25;;;6.05;;
1428;SDS011;708;51.442;7.016;2024-02-23T00:28:58;6.60;;;6.40;;
1428;SDS011;708;51.442;7.016;2024-02-23T00:31:25;6.25;;;6.05;;
1428;SDS011;708;51.442;7.016;2024-02-23T00:33:52;5.78;;;5.57;;
1428;SDS011;708;51.442;7.016;2024-02-23T00:36:19;6.25;;;6.05;;
1428;SDS011;708;51.442;7.016;2024-02-23T00:38:46;6.45;;;6.25;;
1428;SDS011;708;51.442;7.016;2024-02-23T00:41:15;7.47;;;7.15;;
1428;SDS011;708;51.442;7.016;2024-02-23T00:43:42;7.30;;;7.00;;
1428;SDS011;708;51.442;7.016;2024-02-23T00:46:09;6.57;;;6.38;;
1428;SDS011;708;51.442;7.016;2024-02-23T00:48:37;6.53;;;6.32;;
1428;SDS011;708;51.442;7.016;2024-02-23T00:51:03;5.50;;;5.30;;
1428;SDS011;708;51.442;7.016;2024-02-23T00:53:32;5.65;;;5.45;;
1428;SDS011;708;51.442;7.016;2024-02-23T00:56:00;4.80;;;4.60;;
1428;SDS011;708;51.442;7.016;2024-02-23T00:58:28;4.97;;;4.78;;
1428;SDS011;708;51.442;7.016;2024-02-23T01:00:56;4.47;;;4.28;;
1428;SDS011;708;51.442;7.016;2024-02-23T01:03:23;4.75;;;4.55;;
1428;SDS011;708;51.442;7.016;2024-02-23T01:05:51;4.93;;;4.72;;
1428;SDS011;708;51.442;7.016;2024-02-23T01:08:19;4.80;;;4.60;;
1428;SDS011;708;51.442;7.016;2024-02-23T01:10:46;5.07;;;4.88;;
1428;SDS011;708;51.442;7.016;2024-02-23T01:13:13;5.40;;;5.20;;
1428;SDS011;708;51.442;7.016;2024-02-23T01:15:42;5.15;;;4.95;;
1428;SDS011;708;51.442;7.016;2024-02-23T01:18:10;5.45;;;5.25;;
1428;SDS011;708;51.442;7.016;2024-02-23T01:20:38;5.22;;;5.03;;
1428;SDS011;708;51.442;7.016;2024-02-23T01:23:06;5.47;;;5.28;;
1428;SDS011;708;51.442;7.016;2024-02-23T01:25:34;5.60;;;5.40;;
1428;SDS011;708;51.442;7.016;2024-02-23T01:28:02;5.93;;;5.72;;
1428;SDS011;708;51.442;7.016;2024-02-23T01:30:30;5.47;;;5.28;;
1428;SDS011;708;51.442;7.016;2024-02-23T01:33:00;5.63;;;5.43;;
1428;SDS011;708;51.442;7.016;2024-02-23T01:35:28;5.53;;;5.32;;
1428;SDS011;708;51.442;7.016;2024-02-23T01:37:56;5.68;;;5.47;;
1428;SDS011;708;51.442;7.016;2024-02-23T01:40:22;5.32;;;5.13;;
1428;SDS011;708;51.442;7.016;2024-02-23T01:42:59;5.57;;;5.38;;
1428;SDS011;708;51.442;7.016;2024-02-23T01:45:28;5.82;;;5.63;;
1428;SDS011;708;51.442;7.016;2024-02-23T01:47:56;5.00;;;4.80;;
1428;SDS011;708;51.442;7.016;2024-02-23T01:50:26;4.95;;;4.75;;
1428;SDS011;708;51.442;7.016;2024-02-23T01:52:55;4.90;;;4.70;;
1428;SDS011;708;51.442;7.016;2024-02-23T01:55:23;5.05;;;4.85;;
1428;SDS011;708;51.442;7.016;2024-02-23T01:57:51;4.70;;;4.50;;
1428;SDS011;708;51.442;7.016;2024-02-23T02:00:20;5.40;;;5.20;;
1428;SDS011;708;51.442;7.016;2024-02-23T02:02:48;5.35;;;5.15;;
1428;SDS011;708;51.442;7.016;2024-02-23T02:05:16;5.35;;;5.15;;
1428;SDS011;708;51.442;7.016;2024-02-23T02:07:45;4.90;;;4.70;;
1428;SDS011;708;51.442;7.016;2024-02-23T02:10:13;5.78;;;5.57;;
1428;SDS011;708;51.442;7.016;2024-02-23T02:12:41;5.13;;;4.93;;
1428;SDS011;708;51.442;7.016;2024-02-23T02:15:09;5.30;;;5.10;;
1428;SDS011;708;51.442;7.016;2024-02-23T02:17:37;5.72;;;5.53;;
1428;SDS011;708;51.442;7.016;2024-02-23T02:20:05;5.72;;;5.53;;
1428;SDS011;708;51.442;7.016;2024-02-23T02:22:34;5.82;;;5.63;;
1428;SDS011;708;51.442;7.016;2024-02-23T02:25:04;5.35;;;5.15;;
1428;SDS011;708;51.442;7.016;2024-02-23T02:27:32;5.68;;;5.47;;
1428;SDS011;708;51.442;7.016;2024-02-23T02:30:00;5.93;;;5.72;;
1428;SDS011;708;51.442;7.016;2024-02-23T02:32:28;6.00;;;5.80;;
1428;SDS011;708;51.442;7.016;2024-02-23T02:34:56;5.68;;;5.47;;
1428;SDS011;708;51.442;7.016;2024-02-23T02:37:24;6.15;;;5.95;;
1428;SDS011;708;51.442;7.016;2024-02-23T02:39:52;5.85;;;5.65;;
1428;SDS011;708;51.442;7.016;2024-02-23T02:42:21;5.60;;;5.40;;
1428;SDS011;708;51.442;7.016;2024-02-23T02:44:49;5.82;;;5.63;;
1428;SDS011;708;51.442;7.016;2024-02-23T02:47:18;5.72;;;5.53;;
1428;SDS011;708;51.442;7.016;2024-02-23T02:49:46;5.60;;;5.40;;
1428;SDS011;708;51.442;7.016;2024-02-23T02:52:14;5.13;;;4.93;;
1428;SDS011;708;51.442;7.016;2024-02-23T02:54:42;6.93;;;6.63;;
1428;SDS011;708;51.442;7.016;2024-02-23T02:57:10;5.65;;;5.45;;
1428;SDS011;708;51.442;7.016;2024-02-23T02:59:40;6.03;;;5.82;;
1428;SDS011;708;51.442;7.016;2024-02-23T03:02:09;6.20;;;6.00;;
1428;SDS011;708;51.442;7.016;2024-02-23T03:04:37;5.70;;;5.50;;
1428;SDS011;708;51.442;7.016;2024-02-23T03:07:06;6.10;;;5.90;;
1428;SDS011;708;51.442;7.016;2024-02-23T03:09:34;5.25;;;5.05;;
1428;SDS011;708;51.442;7.016;2024-02-23T03:12:02;5.78;;;5.57;;
1428;SDS011;708;51.442;7.016;2024-02-23T03:14:30;5.80;;;5.60;;
1428;SDS011;708;51.442;7.016;2024-02-23T03:17:02;5.97;;;5.78;;
1428;SDS011;708;51.442;7.016;2024-02-23T03:19:31;6.50;;;6.18;;
1428;SDS011;708;51.442;7.016;2024-02-23T03:22:00;5.85;;;5.65;;
1428;SDS011;708;51.442;7.016;2024-02-23T03:24:28;5.40;;;5.20;;
1428;SDS011;708;51.442;7.016;2024-02-23T03:26:55;5.25;;;5.05;;
1428;SDS011;708;51.442;7.016;2024-02-23T03:29:22;5.22;;;5.03;;
1428;SDS011;708;51.442;7.016;2024-02-23T03:31:49;5.55;;;5.35;;
1428;SDS011;708;51.442;7.016;2024-02-23T03:34:17;5.63;;;5.43;;
1428;SDS011;708;51.442;7.016;2024-02-23T03:36:44;5.30;;;5.10;;
1428;SDS011;708;51.442;7.016;2024-02-23T03:39:11;5.38;;;5.18;;
1428;SDS011;708;51.442;7.016;2024-02-23T03:41:38;5.32;;;5.13;;
1428;SDS011;708;51.442;7.016;2024-02-23T03:44:04;5.80;;;5.60;;
1428;SDS011;708;51.442;7.016;2024-02-23T03:46:31;5.32;;;5.13;;
1428;SDS011;708;51.442;7.016;2024-02-23T03:48:59;5.85;;;5.65;;
1428;SDS011;708;51.442;7.016;2024-02-23T03:51:27;6.03;;;5.82;;
1428;SDS011;708;51.442;7.016;2024-02-23T03:53:54;7.00;;;6.70;;
1428;SDS011;708;51.442;7.016;2024-02-23T03:56:21;5.80;;;5.60;;
1428;SDS011;708;51.442;7.016;2024-02-23T03:58:47;6.32;;;6.13;;
1428;SDS011;708;51.442;7.016;2024-02-23T04:01:14;5.93;;;5.72;;
1428;SDS011;708;51.442;7.016;2024-02-23T04:03:41;7.20;;;6.90;;
1428;SDS011;708;51.442;7.016;2024-02-23T04:06:08;5.70;;;5.50;;
1428;SDS011;708;51.442;7.016;2024-02-23T04:08:35;6.47;;;6.27;;
1428;SDS011;708;51.442;7.016;2024-02-23T04:11:02;5.25;;;5.05;;
1428;SDS011;708;51.442;7.016;2024-02-23T04:13:29;6.38;;;6.18;;
1428;SDS011;708;51.442;7.016;2024-02-23T04:15:57;6.03;;;5.82;;
1428;SDS011;708;51.442;7.016;2024-02-23T04:18:25;6.32;;;6.13;;
1428;SDS011;708;51.442;7.016;2024-02-23T04:20:52;6.78;;;6.57;;
1428;SDS011;708;51.442;7.016;2024-02-23T04:23:20;6.68;;;6.47;;
1428;SDS011;708;51.442;7.016;2024-02-23T04:25:50;7.55;;;7.25;;
1428;SDS011;708;51.442;7.016;2024-02-23T04:28:17;6.57;;;6.38;;
1428;SDS011;708;51.442;7.016;2024-02-23T04:30:45;6.20;;;5.90;;
1428;SDS011;708;51.442;7.016;2024-02-23T04:33:12;5.50;;;5.30;;
1428;SDS011;708;51.442;7.016;2024-02-23T04:35:39;6.30;;;6.10;;
1428;SDS011;708;51.442;7.016;2024-02-23T04:38:05;6.03;;;5.82;;
1428;SDS011;708;51.442;7.016;2024-02-23T04:40:33;6.00;;;5.80;;
1428;SDS011;708;51.442;7.016;2024-02-23T04:43:01;7.25;;;6.28;;
1428;SDS011;708;51.442;7.016;2024-02-23T04:45:28;6.75;;;6.55;;
1428;SDS011;708;51.442;7.016;2024-02-23T04:47:55;6.05;;;5.85;;
1428;SDS011;708;51.442;7.016;2024-02-23T04:50:23;5.75;;;5.55;;
1428;SDS011;708;51.442;7.016;2024-02-23T04:52:51;6.20;;;6.00;;
1428;SDS011;708;51.442;7.016;2024-02-23T04:55:18;5.75;;;5.55;;
1428;SDS011;708;51.442;7.016;2024-02-23T04:57:45;6.68;;;6.47;;
1428;SDS011;708;51.442;7.016;2024-02-23T05:00:14;6.45;;;6.25;;
1428;SDS011;708;51.442;7.016;2024-02-23T05:02:42;9.55;;;9.00;;
1428;SDS011;708;51.442;7.016;2024-02-23T05:05:10;8.52;;;8.23;;
1428;SDS011;708;51.442;7.016;2024-02-23T05:07:37;8.85;;;8.55;;
1428;SDS011;708;51.442;7.016;2024-02-23T05:10:04;7.72;;;7.43;;
1428;SDS011;708;51.442;7.016;2024-02-23T05:12:31;7.65;;;7.35;;
1428;SDS011;708;51.442;7.016;2024-02-23T05:14:58;7.75;;;7.45;;
1428;SDS011;708;51.442;7.016;2024-02-23T05:17:26;8.30;;;8.00;;
1428;SDS011;708;51.442;7.016;2024-02-23T05:19:53;8.35;;;8.05;;
1428;SDS011;708;51.442;7.016;2024-02-23T05:22:20;7.50;;;7.20;;
1428;SDS011;708;51.442;7.016;2024-02-23T05:24:48;7.38;;;7.07;;
1428;SDS011;708;51.442;7.016;2024-02-23T05:27:16;8.32;;;8.02;;
1428;SDS011;708;51.442;7.016;2024-02-23T05:29:43;8.95;;;8.65;;
1428;SDS011;708;51.442;7.016;2024-02-23T05:32:11;9.00;;;8.70;;
1428;SDS011;708;51.442;7.016;2024-02-23T05:34:40;8.05;;;7.75;;
1428;SDS011;708;51.442;7.016;2024-02-23T05:37:08;9.68;;;9.23;;
1428;SDS011;708;51.442;7.016;2024-02-23T05:39:36;8.05;;;7.75;;
1428;SDS011;708;51.442;7.016;2024-02-23T05:42:06;7.45;;;7.15;;
1428;SDS011;708;51.442;7.016;2024-02-23T05:44:34;8.52;;;8.23;;
1428;SDS011;708;51.442;7.016;2024-02-23T05:47:03;6.55;;;6.35;;
1428;SDS011;708;51.442;7.016;2024-02-23T05:49:31;6.07;;;5.88;;
1428;SDS011;708;51.442;7.016;2024-02-23T05:52:01;7.78;;;7.47;;
1428;SDS011;708;51.442;7.016;2024-02-23T05:54:29;7.03;;;6.82;;
1428;SDS011;708;51.442;7.016;2024-02-23T05:56:57;6.75;;;6.45;;
1428;SDS011;708;51.442;7.016;2024-02-23T05:59:26;7.07;;;6.88;;
1428;SDS011;708;51.442;7.016;2024-02-23T06:01:55;7.78;;;7.47;;
1428;SDS011;708;51.442;7.016;2024-02-23T06:04:24;8.70;;;8.40;;
1428;SDS011;708;51.442;7.016;2024-02-23T06:06:54;7.10;;;6.90;;
1428;SDS011;708;51.442;7.016;2024-02-23T06:09:24;7.00;;;6.80;;
1428;SDS011;708;51.442;7.016;2024-02-23T06:11:52;8.20;;;7.90;;
1428;SDS011;708;51.442;7.016;2024-02-23T06:14:21;9.73;;;9.23;;
1428;SDS011;708;51.442;7.016;2024-02-23T06:16:50;7.05;;;6.82;;
1428;SDS011;708;51.442;7.016;2024-02-23T06:19:20;8.13;;;7.82;;
1428;SDS011;708;51.442;7.016;2024-02-23T06:21:50;7.75;;;7.45;;
1428;SDS011;708;51.442;7.016;2024-02-23T06:24:20;7.68;;;7.38;;
1428;SDS011;708;51.442;7.016;2024-02-23T06:26:50;8.98;;;8.57;;
1428;SDS011;708;51.442;7.016;2024-02-23T06:29:19;8.10;;;7.80;;
1428;SDS011;708;51.442;7.016;2024-02-23T06:31:48;7.47;;;7.18;;
1428;SDS011;708;51.442;7.016;2024-02-23T06:34:17;6.80;;;6.60;;
1428;SDS011;708;51.442;7.016;2024-02-23T06:36:46;6.47;;;6.28;;
1428;SDS011;708;51.442;7.016;2024-02-23T06:39:13;6.47;;;6.28;;
1428;SDS011;708;51.442;7.016;2024-02-23T06:41:45;6.47;;;6.28;;
1428;SDS011;708;51.442;7.016;2024-02-23T06:44:15;6.22;;;6.03;;
1428;SDS011;708;51.442;7.016;2024-02-23T06:46:43;7.15;;;6.90;;
1428;SDS011;708;51.442;7.016;2024-02-23T06:49:11;7.72;;;7.43;;
1428;SDS011;708;51.442;7.016;2024-02-23T06:51:40;8.70;;;8.40;;
1428;SDS011;708;51.442;7.016;2024-02-23T06:54:08;7.95;;;7.65;;
1428;SDS011;708;51.442;7.016;2024-02-23T06:56:36;7.60;;;7.30;;
1428;SDS011;708;51.442;7.016;2024-02-23T06:59:04;8.23;;;7.93;;
1428;SDS011;708;51.442;7.016;2024-02-23T07:01:35;8.38;;;8.07;;
1428;SDS011;708;51.442;7.016;2024-02-23T07:04:04;8.27;;;7.97;;
1428;SDS011;708;51.442;7.016;2024-02-23T07:06:33;7.45;;;7.15;;
1428;SDS011;708;51.442;7.016;2024-02-23T07:09:02;8.00;;;7.70;;
1428;SDS011;708;51.442;7.016;2024-02-23T07:11:30;7.85;;;7.55;;
1428;SDS011;708;51.442;7.016;2024-02-23T07:13:59;6.35;;;6.15;;
1428;SDS011;708;51.442;7.016;2024-02-23T07:16:27;6.35;;;6.15;;
1428;SDS011;708;51.442;7.016;2024-02-23T07:18:56;7.85;;;7.55;;
1428;SDS011;708;51.442;7.016;2024-02-23T07:21:26;6.75;;;6.55;;
1428;SDS011;708;51.442;7.016;2024-02-23T07:23:55;6.55;;;6.35;;
1428;SDS011;708;51.442;7.016;2024-02-23T07:26:25;6.68;;;6.47;;
1428;SDS011;708;51.442;7.016;2024-02-23T07:28:54;6.60;;;6.40;;
1428;SDS011;708;51.442;7.016;2024-02-23T07:31:24;6.55;;;6.35;;
1428;SDS011;708;51.442;7.016;2024-02-23T07:33:52;9.15;;;8.38;;
1428;SDS011;708;51.442;7.016;2024-02-23T07:36:23;7.78;;;7.47;;
1428;SDS011;708;51.442;7.016;2024-02-23T07:38:51;7.25;;;6.63;;
1428;SDS011;708;51.442;7.016;2024-02-23T07:41:22;6.15;;;5.85;;
1428;SDS011;708;51.442;7.016;2024-02-23T07:43:51;7.25;;;6.85;;
1428;SDS011;708;51.442;7.016;2024-02-23T07:46:18;6.45;;;6.15;;
1428;SDS011;708;51.442;7.016;2024-02-23T07:48:48;6.82;;;6.53;;
1428;SDS011;708;51.442;7.016;2024-02-23T07:51:19;6.00;;;5.80;;
1428;SDS011;708;51.442;7.016;2024-02-23T07:53:50;7.40;;;7.10;;
1428;SDS011;708;51.442;7.016;2024-02-23T07:56:18;7.43;;;7.13;;
1428;SDS011;708;51.442;7.016;2024-02-23T07:58:48;6.50;;;6.30;;
1428;SDS011;708;51.442;7.016;2024-02-23T08:01:18;6.65;;;6.45;;
1428;SDS011;708;51.442;7.016;2024-02-23T08:03:47;6.22;;;6.03;;
1428;SDS011;708;51.442;7.016;2024-02-23T08:06:15;7.25;;;6.95;;
1428;SDS011;708;51.442;7.016;2024-02-23T08:08:43;6.30;;;6.00;;
1428;SDS011;708;51.442;7.016;2024-02-23T08:11:13;6.95;;;6.65;;
1428;SDS011;708;51.442;7.016;2024-02-23T08:13:41;7.75;;;7.35;;
1428;SDS011;708;51.442;7.016;2024-02-23T08:16:08;7.05;;;6.75;;
1428;SDS011;708;51.442;7.016;2024-02-23T08:18:35;7.18;;;6.88;;
1428;SDS011;708;51.442;7.016;2024-02-23T08:21:03;5.15;;;4.95;;
1428;SDS011;708;51.442;7.016;2024-02-23T08:23:30;7.13;;;6.75;;
1428;SDS011;708;51.442;7.016;2024-02-23T08:25:57;6.68;;;6.45;;
1428;SDS011;708;51.442;7.016;2024-02-23T08:28:26;6.65;;;6.40;;
1428;SDS011;708;51.442;7.016;2024-02-23T08:30:53;5.90;;;5.70;;
1428;SDS011;708;51.442;7.016;2024-02-23T08:33:20;6.53;;;6.18;;
1428;SDS011;708;51.442;7.016;2024-02-23T08:35:47;6.30;;;6.10;;
1428;SDS011;708;51.442;7.016;2024-02-23T08:38:14;6.20;;;6.00;;
1428;SDS011;708;51.442;7.016;2024-02-23T08:40:41;6.22;;;6.03;;
1428;SDS011;708;51.442;7.016;2024-02-23T08:43:08;5.97;;;5.78;;
1428;SDS011;708;51.442;7.016;2024-02-23T08:45:37;6.53;;;6.22;;
1428;SDS011;708;51.442;7.016;2024-02-23T08:48:06;6.95;;;6.57;;
1428;SDS011;708;51.442;7.016;2024-02-23T08:50:34;5.57;;;5.38;;
1428;SDS011;708;51.442;7.016;2024-02-23T08:53:03;5.60;;;5.40;;
1428;SDS011;708;51.442;7.016;2024-02-23T08:55:32;5.45;;;5.22;;
1428;SDS011;708;51.442;7.016;2024-02-23T08:58:00;5.90;;;5.70;;
1428;SDS011;708;51.442;7.016;2024-02-23T09:00:28;6.13;;;5.72;;
1428;SDS011;708;51.442;7.016;2024-02-23T09:02:58;6.22;;;6.03;;
1428;SDS011;708;51.442;7.016;2024-02-23T09:05:26;7.40;;;7.10;;
1428;SDS011;708;51.442;7.016;2024-02-23T09:07:54;6.85;;;6.65;;
1428;SDS011;708;51.442;7.016;2024-02-23T09:10:22;7.15;;;6.85;;
1428;SDS011;708;51.442;7.016;2024-02-23T09:12:50;6.93;;;6.70;;
1428;SDS011;708;51.442;7.016;2024-02-23T09:15:18;7.18;;;6.88;;
1428;SDS011;708;51.442;7.016;2024-02-23T09:17:47;12.15;;;7.47;;
1428;SDS011;708;51.442;7.016;2024-02-23T09:20:17;6.45;;;6.15;;
1428;SDS011;708;51.442;7.016;2024-02-23T09:22:44;7.45;;;7.15;;
1428;SDS011;708;51.442;7.016;2024-02-23T09:25:12;6.32;;;6.13;;
1428;SDS011;708;51.442;7.016;2024-02-23T09:27:39;6.60;;;6.32;;
1428;SDS011;708;51.442;7.016;2024-02-23T09:30:09;6.38;;;6.07;;
1428;SDS011;708;51.442;7.016;2024-02-23T09:32:41;6.15;;;5.95;;
1428;SDS011;708;51.442;7.016;2024-02-23T09:35:09;6.15;;;5.95;;
1428;SDS011;708;51.442;7.016;2024-02-23T09:37:38;6.72;;;6.43;;
1428;SDS011;708;51.442;7.016;2024-02-23T09:40:06;7.15;;;6.85;;
1428;SDS011;708;51.442;7.016;2024-02-23T09:42:35;7.45;;;7.15;;
1428;SDS011;708;51.442;7.016;2024-02-23T09:45:04;7.25;;;6.95;;
1428;SDS011;708;51.442;7.016;2024-02-23T09:47:34;6.70;;;6.50;;
1428;SDS011;708;51.442;7.016;2024-02-23T09:50:02;7.32;;;7.03;;
1428;SDS011;708;51.442;7.016;2024-02-23T09:52:30;7.45;;;7.15;;
1428;SDS011;708;51.442;7.016;2024-02-23T09:55:00;8.00;;;7.70;;
1428;SDS011;708;51.442;7.016;2024-02-23T09:57:28;7.15;;;6.85;;
1428;SDS011;708;51.442;7.016;2024-02-23T09:59:55;6.35;;;6.05;;
1428;SDS011;708;51.442;7.016;2024-02-23T10:02:23;6.90;;;6.63;;
1428;SDS011;708;51.442;7.016;2024-02-23T10:04:50;7.13;;;6.82;;
1428;SDS011;708;51.442;7.016;2024-02-23T10:07:18;7.68;;;7.38;;
1428;SDS011;708;51.442;7.016;2024-02-23T10:09:46;5.78;;;5.57;;
1428;SDS011;708;51.442;7.016;2024-02-23T10:12:15;8.10;;;7.53;;
1428;SDS011;708;51.442;7.016;2024-02-23T10:14:43;7.90;;;7.60;;
1428;SDS011;708;51.442;7.016;2024-02-23T10:17:11;8.40;;;8.10;;
1428;SDS011;708;51.442;7.016;2024-02-23T10:19:39;7.90;;;7.60;;
1428;SDS011;708;51.442;7.016;2024-02-23T10:22:07;7.65;;;7.35;;
1428;SDS011;708;51.442;7.016;2024-02-23T10:24:36;8.35;;;7.95;;
1428;SDS011;708;51.442;7.016;2024-02-23T10:27:04;8.70;;;8.40;;
1428;SDS011;708;51.442;7.016;2024-02-23T10:29:33;7.50;;;7.20;;
1428;SDS011;708;51.442;7.016;2024-02-23T10:32:01;8.88;;;8.57;;
1428;SDS011;708;51.442;7.016;2024-02-23T10:34:29;7.10;;;6.80;;
1428;SDS011;708;51.442;7.016;2024-02-23T10:36:58;7.97;;;7.68;;
1428;SDS011;708;51.442;7.016;2024-02-23T10:39:26;8.05;;;7.75;;
1428;SDS011;708;51.442;7.016;2024-02-23T10:41:57;7.65;;;7.35;;
1428;SDS011;708;51.442;7.016;2024-02-23T10:44:28;7.88;;;7.57;;
1428;SDS011;708;51.442;7.016;2024-02-23T10:46:58;7.65;;;7.35;;
1428;SDS011;708;51.442;7.016;2024-02-23T10:49:26;6.40;;;6.20;;
1428;SDS011;708;51.442;7.016;2024-02-23T10:51:55;9.00;;;8.50;;
1428;SDS011;708;51.442;7.016;2024-02-23T10:54:23;7.07;;;6.78;;
1428;SDS011;708;51.442;7.016;2024-02-23T10:56:52;7.85;;;7.55;;
1428;SDS011;708;51.442;7.016;2024-02-23T10:59:20;7.55;;;7.25;;
1428;SDS011;708;51.442;7.016;2024-02-23T11:01:49;7.10;;;6.82;;
1428;SDS011;708;51.442;7.016;2024-02-23T11:04:18;8.00;;;7.70;;
1428;SDS011;708;51.442;7.016;2024-02-23T11:06:50;7.57;;;7.28;;
1428;SDS011;708;51.442;7.016;2024-02-23T11:09:20;7.30;;;7.00;;
1428;SDS011;708;51.442;7.016;2024-02-23T11:11:54;7.95;;;7.65;;
1428;SDS011;708;51.442;7.016;2024-02-23T11:14:31;8.60;;;8.30;;
1428;SDS011;708;51.442;7.016;2024-02-23T11:16:59;8.38;;;8.07;;
1428;SDS011;708;51.442;7.016;2024-02-23T11:19:34;7.85;;;7.55;;
1428;SDS011;708;51.442;7.016;2024-02-23T11:22:03;7.72;;;7.43;;
1428;SDS011;708;51.442;7.016;2024-02-23T11:24:31;8.23;;;7.93;;
1428;SDS011;708;51.442;7.016;2024-02-23T11:26:58;7.40;;;7.10;;
1428;SDS011;708;51.442;7.016;2024-02-23T11:29:32;8.30;;;8.00;;
1428;SDS011;708;51.442;7.016;2024-02-23T11:32:01;8.15;;;7.85;;
1428;SDS011;708;51.442;7.016;2024-02-23T11:34:29;8.43;;;8.13;;
1428;SDS011;708;51.442;7.016;2024-02-23T11:36:58;7.50;;;7.20;;
1428;SDS011;708;51.442;7.016;2024-02-23T11:39:34;6.82;;;6.63;;
1428;SDS011;708;51.442;7.016;2024-02-23T11:42:03;7.13;;;6.82;;
1428;SDS011;708;51.442;7.016;2024-02-23T11:44:31;10.35;;;9.88;;
1428;SDS011;708;51.442;7.016;2024-02-23T11:46:59;7.63;;;7.32;;
1428;SDS011;708;51.442;7.016;2024-02-23T11:49:28;19.50;;;8.07;;
1428;SDS011;708;51.442;7.016;2024-02-23T11:51:56;8.80;;;8.30;;
1428;SDS011;708;51.442;7.016;2024-02-23T11:54:26;7.15;;;6.85;;
1428;SDS011;708;51.442;7.016;2024-02-23T11:56:54;7.18;;;6.88;;
1428;SDS011;708;51.442;7.016;2024-02-23T11:59:22;7.22;;;6.93;;
1428;SDS011;708;51.442;7.016;2024-02-23T12:01:50;7.97;;;7.68;;
1428;SDS011;708;51.442;7.016;2024-02-23T12:04:18;6.85;;;6.60;;
1428;SDS011;708;51.442;7.016;2024-02-23T12:06:46;7.03;;;6.72;;
1428;SDS011;708;51.442;7.016;2024-02-23T12:09:14;5.72;;;5.53;;
1428;SDS011;708;51.442;7.016;2024-02-23T12:11:47;7.60;;;7.30;;
1428;SDS011;708;51.442;7.016;2024-02-23T12:14:15;6.72;;;6.47;;
1428;SDS011;708;51.442;7.016;2024-02-23T12:16:43;7.18;;;6.88;;
1428;SDS011;708;51.442;7.016;2024-02-23T12:19:11;4.70;;;4.50;;
1428;SDS011;708;51.442;7.016;2024-02-23T12:21:38;6.22;;;6.03;;
1428;SDS011;708;51.442;7.016;2024-02-23T12:24:06;6.45;;;6.18;;
1428;SDS011;708;51.442;7.016;2024-02-23T12:26:34;6.35;;;6.15;;
1428;SDS011;708;51.442;7.016;2024-02-23T12:29:04;7.10;;;6.80;;
1428;SDS011;708;51.442;7.016;2024-02-23T12:31:33;7.13;;;6.82;;
1428;SDS011;708;51.442;7.016;2024-02-23T12:34:01;6.45;;;6.25;;
1428;SDS011;708;51.442;7.016;2024-02-23T12:36:29;8.32;;;8.02;;
1428;SDS011;708;51.442;7.016;2024-02-23T12:39:00;8.68;;;8.18;;
1428;SDS011;708;51.442;7.016;2024-02-23T12:41:28;9.60;;;8.77;;
1428;SDS011;708;51.442;7.016;2024-02-23T12:43:56;7.38;;;7.07;;
1428;SDS011;708;51.442;7.016;2024-02-23T12:46:25;9.18;;;8.77;;
1428;SDS011;708;51.442;7.016;2024-02-23T12:48:53;7.00;;;6.70;;
1428;SDS011;708;51.442;7.016;2024-02-23T12:51:24;6.30;;;6.10;;
1428;SDS011;708;51.442;7.016;2024-02-23T12:53:52;6.07;;;5.88;;
1428;SDS011;708;51.442;7.016;2024-02-23T12:56:20;7.20;;;6.90;;
1428;SDS011;708;51.442;7.016;2024-02-23T12:58:50;7.65;;;7.35;;
1428;SDS011;708;51.442;7.016;2024-02-23T13:01:19;7.00;;;6.70;;
1428;SDS011;708;51.442;7.016;2024-02-23T13:03:48;8.07;;;7.68;;
1428;SDS011;708;51.442;7.016;2024-02-23T13:06:17;6.50;;;6.30;;
1428;SDS011;708;51.442;7.016;2024-02-23T13:08:45;8.40;;;7.90;;
1428;SDS011;708;51.442;7.016;2024-02-23T13:11:13;9.15;;;8.75;;
1428;SDS011;708;51.442;7.016;2024-02-23T13:13:41;7.03;;;6.72;;
1428;SDS011;708;51.442;7.016;2024-02-23T13:16:10;6.60;;;6.40;;
1428;SDS011;708;51.442;7.016;2024-02-23T13:18:40;8.65;;;8.35;;
1428;SDS011;708;51.442;7.016;2024-02-23T13:21:10;6.82;;;6.60;;
1428;SDS011;708;51.442;7.016;2024-02-23T13:23:38;8.40;;;8.10;;
1428;SDS011;708;51.442;7.016;2024-02-23T13:26:08;6.57;;;6.38;;
1428;SDS011;708;51.442;7.016;2024-02-23T13:28:35;8.40;;;8.10;;
1428;SDS011;708;51.442;7.016;2024-02-23T13:31:02;8.25;;;7.85;;
1428;SDS011;708;51.442;7.016;2024-02-23T13:33:30;7.72;;;7.43;;
1428;SDS011;708;51.442;7.016;2024-02-23T13:35:57;9.30;;;9.00;;
1428;SDS011;708;51.442;7.016;2024-02-23T13:38:26;7.78;;;7.47;;
1428;SDS011;708;51.442;7.016;2024-02-23T13:40:54;11.68;;;7.43;;
1428;SDS011;708;51.442;7.016;2024-02-23T13:43:22;8.60;;;8.10;;
1428;SDS011;708;51.442;7.016;2024-02-23T13:45:50;6.75;;;6.53;;
1428;SDS011;708;51.442;7.016;2024-02-23T13:48:19;7.43;;;7.13;;
1428;SDS011;708;51.442;7.016;2024-02-23T13:50:47;8.30;;;8.00;;
1428;SDS011;708;51.442;7.016;2024-02-23T13:53:15;9.50;;;9.20;;
1428;SDS011;708;51.442;7.016;2024-02-23T13:55:44;8.32;;;8.02;;
1428;SDS011;708;51.442;7.016;2024-02-23T13:58:12;8.15;;;7.85;;
1428;SDS011;708;51.442;7.016;2024-02-23T14:00:40;7.60;;;7.30;;
1428;SDS011;708;51.442;7.016;2024-02-23T14:03:09;8.07;;;7.78;;
1428;SDS011;708;51.442;7.016;2024-02-23T14:05:39;7.70;;;7.40;;
1428;SDS011;708;51.442;7.016;2024-02-23T14:08:09;7.40;;;7.10;;
1428;SDS011;708;51.442;7.016;2024-02-23T14:10:37;7.43;;;7.03;;
1428;SDS011;708;51.442;7.016;2024-02-23T14:13:09;7.20;;;6.90;;
1428;SDS011;708;51.442;7.016;2024-02-23T14:15:40;7.10;;;6.80;;
1428;SDS011;708;51.442;7.016;2024-02-23T14:18:08;8.00;;;7.70;;
1428;SDS011;708;51.442;7.016;2024-02-23T14:20:36;6.57;;;6.28;;
1428;SDS011;708;51.442;7.016;2024-02-23T14:23:05;7.10;;;6.80;;
1428;SDS011;708;51.442;7.016;2024-02-23T14:25:33;6.20;;;6.00;;
1428;SDS011;708;51.442;7.016;2024-02-23T14:28:01;5.65;;;5.45;;
1428;SDS011;708;51.442;7.016;2024-02-23T14:30:30;5.90;;;5.70;;
1428;SDS011;708;51.442;7.016;2024-02-23T14:32:58;8.43;;;8.02;;
1428;SDS011;708;51.442;7.016;2024-02-23T14:35:26;6.00;;;5.80;;
1428;SDS011;708;51.442;7.016;2024-02-23T14:37:55;6.55;;;6.35;;
1428;SDS011;708;51.442;7.016;2024-02-23T14:40:23;5.85;;;5.65;;
1428;SDS011;708;51.442;7.016;2024-02-23T14:42:51;5.97;;;5.78;;
1428;SDS011;708;51.442;7.016;2024-02-23T14:45:19;6.30;;;6.10;;
1428;SDS011;708;51.442;7.016;2024-02-23T14:47:49;6.10;;;5.90;;
1428;SDS011;708;51.442;7.016;2024-02-23T14:50:16;5.35;;;5.15;;
1428;SDS011;708;51.442;7.016;2024-02-23T14:52:43;5.70;;;5.50;;
1428;SDS011;708;51.442;7.016;2024-02-23T14:55:10;7.70;;;6.53;;
1428;SDS011;708;51.442;7.016;2024-02-23T14:57:39;5.95;;;5.75;;
1428;SDS011;708;51.442;7.016;2024-02-23T15:00:07;7.18;;;6.78;;
1428;SDS011;708;51.442;7.016;2024-02-23T15:02:35;5.45;;;5.25;;
1428;SDS011;708;51.442;7.016;2024-02-23T15:05:06;6.95;;;6.65;;
1428;SDS011;708;51.442;7.016;2024-02-23T15:07:34;5.85;;;5.65;;
1428;SDS011;708;51.442;7.016;2024-02-23T15:10:04;5.22;;;5.03;;
1428;SDS011;708;51.442;7.016;2024-02-23T15:12:33;5.15;;;4.95;;
1428;SDS011;708;51.442;7.016;2024-02-23T15:15:01;6.13;;;5.72;;
1428;SDS011;708;51.442;7.016;2024-02-23T15:17:31;4.82;;;4.63;;
1428;SDS011;708;51.442;7.016;2024-02-23T15:19:59;6.70;;;6.40;;
1428;SDS011;708;51.442;7.016;2024-02-23T15:22:29;5.13;;;4.93;;
1428;SDS011;708;51.442;7.016;2024-02-23T15:24:57;4.93;;;4.72;;
1428;SDS011;708;51.442;7.016;2024-02-23T15:27:25;5.47;;;5.28;;
1428;SDS011;708;51.442;7.016;2024-02-23T15:29:53;5.32;;;5.13;;
1428;SDS011;708;51.442;7.016;2024-02-23T15:32:20;4.80;;;4.60;;
1428;SDS011;708;51.442;7.016;2024-02-23T15:34:47;5.55;;;5.35;;
1428;SDS011;708;51.442;7.016;2024-02-23T15:37:14;5.40;;;5.20;;